sensor_id;sensor_type;location;lat;lon;timestamp;temperature;humidity
53310;DHT22;39197;53.200;5.792;2022-08-18T00:00:47;18.00;99.90
53310;DHT22;39197;53.200;5.792;2022-08-18T00:03:13;18.00;99.90
53310;DHT22;39197;53.200;5.792;2022-08-18T00:05:39;18.00;99.90
53310;DHT22;39197;53.200;5.792;2022-08-18T00:08:06;18.00;99.90
53310;DHT22;39197;53.200;5.792;2022-08-18T00:10:32;18.00;99.90
53310;DHT22;39197;53.200;5.792;2022-08-18T00:12:58;18.00;99.90
53310;DHT22;39197;53.200;5.792;2022-08-18T00:15:25;18.00;99.90
53310;DHT22;39197;53.200;5.792;2022-08-18T00:17:50;18.00;99.90
53310;DHT22;39197;53.200;5.792;2022-08-18T00:20:20;18.00;99.90
53310;DHT22;39197;53.200;5.792;2022-08-18T00:22:47;18.00;99.90
53310;DHT22;39197;53.200;5.792;2022-08-18T00:25:16;18.00;99.90
53310;DHT22;39197;53.200;5.792;2022-08-18T00:27:41;18.00;99.90
53310;DHT22;39197;53.200;5.792;2022-08-18T00:30:12;18.00;99.90
53310;DHT22;39197;53.200;5.792;2022-08-18T00:32:41;18.00;99.90
53310;DHT22;39197;53.200;5.792;2022-08-18T00:35:16;17.90;99.90
53310;DHT22;39197;53.200;5.792;2022-08-18T00:37:43;17.90;99.90
53310;DHT22;39197;53.200;5.792;2022-08-18T00:40:12;17.90;99.90
53310;DHT22;39197;53.200;5.792;2022-08-18T00:42:42;18.00;99.90
53310;DHT22;39197;53.200;5.792;2022-08-18T00:45:17;17.90;99.90
53310;DHT22;39197;53.200;5.792;2022-08-18T00:47:44;18.00;99.90
53310;DHT22;39197;53.200;5.792;2022-08-18T00:50:14;18.00;99.90
53310;DHT22;39197;53.200;5.792;2022-08-18T00:52:40;18.00;99.90
53310;DHT22;39197;53.200;5.792;2022-08-18T00:55:07;18.00;99.90
53310;DHT22;39197;53.200;5.792;2022-08-18T00:57:33;18.10;99.90
53310;DHT22;39197;53.200;5.792;2022-08-18T01:00:03;18.00;99.90
53310;DHT22;39197;53.200;5.792;2022-08-18T01:02:40;18.10;99.90
53310;DHT22;39197;53.200;5.792;2022-08-18T01:05:31;18.10;99.90
53310;DHT22;39197;53.200;5.792;2022-08-18T01:07:58;18.10;99.90
53310;DHT22;39197;53.200;5.792;2022-08-18T01:10:24;18.10;99.90
53310;DHT22;39197;53.200;5.792;2022-08-18T01:12:52;18.10;99.90
53310;DHT22;39197;53.200;5.792;2022-08-18T01:15:20;18.10;99.90
53310;DHT22;39197;53.200;5.792;2022-08-18T01:17:46;18.20;99.90
53310;DHT22;39197;53.200;5.792;2022-08-18T01:20:47;18.10;99.90
53310;DHT22;39197;53.200;5.792;2022-08-18T01:23:35;18.10;99.90
53310;DHT22;39197;53.200;5.792;2022-08-18T01:26:01;18.10;99.90
53310;DHT22;39197;53.200;5.792;2022-08-18T01:28:38;18.10;99.90
53310;DHT22;39197;53.200;5.792;2022-08-18T01:31:04;18.20;99.90
53310;DHT22;39197;53.200;5.792;2022-08-18T01:33:34;18.20;99.90
53310;DHT22;39197;53.200;5.792;2022-08-18T01:36:11;18.20;99.90
53310;DHT22;39197;53.200;5.792;2022-08-18T01:38:39;18.20;99.90
53310;DHT22;39197;53.200;5.792;2022-08-18T01:41:06;18.20;99.90
53310;DHT22;39197;53.200;5.792;2022-08-18T01:43:35;18.20;99.90
53310;DHT22;39197;53.200;5.792;2022-08-18T01:46:01;18.20;99.90
53310;DHT22;39197;53.200;5.792;2022-08-18T01:48:35;18.30;99.90
53310;DHT22;39197;53.200;5.792;2022-08-18T01:51:08;18.30;99.90
53310;DHT22;39197;53.200;5.792;2022-08-18T01:53:34;18.30;99.90
53310;DHT22;39197;53.200;5.792;2022-08-18T01:56:00;18.30;99.90
53310;DHT22;39197;53.200;5.792;2022-08-18T01:58:28;18.40;99.90
53310;DHT22;39197;53.200;5.792;2022-08-18T02:00:54;18.30;99.90
53310;DHT22;39197;53.200;5.792;2022-08-18T02:03:24;18.40;99.90
53310;DHT22;39197;53.200;5.792;2022-08-18T02:05:55;18.40;99.90
53310;DHT22;39197;53.200;5.792;2022-08-18T02:08:24;18.30;99.90
53310;DHT22;39197;53.200;5.792;2022-08-18T02:10:50;18.40;99.90
53310;DHT22;39197;53.200;5.792;2022-08-18T02:13:16;18.40;99.90
53310;DHT22;39197;53.200;5.792;2022-08-18T02:15:41;18.40;99.90
53310;DHT22;39197;53.200;5.792;2022-08-18T02:18:13;18.40;99.90
53310;DHT22;39197;53.200;5.792;2022-08-18T02:20:39;18.40;99.90
53310;DHT22;39197;53.200;5.792;2022-08-18T02:23:05;18.40;99.90
53310;DHT22;39197;53.200;5.792;2022-08-18T02:25:31;18.40;99.90
53310;DHT22;39197;53.200;5.792;2022-08-18T02:27:56;18.40;99.90
53310;DHT22;39197;53.200;5.792;2022-08-18T02:30:22;18.40;99.90
53310;DHT22;39197;53.200;5.792;2022-08-18T02:32:48;18.40;99.90
53310;DHT22;39197;53.200;5.792;2022-08-18T02:35:13;18.40;99.90
53310;DHT22;39197;53.200;5.792;2022-08-18T02:37:40;18.30;99.90
53310;DHT22;39197;53.200;5.792;2022-08-18T02:40:06;18.30;99.90
53310;DHT22;39197;53.200;5.792;2022-08-18T02:42:32;18.20;99.90
53310;DHT22;39197;53.200;5.792;2022-08-18T02:44:58;18.20;99.90
53310;DHT22;39197;53.200;5.792;2022-08-18T02:47:23;18.20;99.90
53310;DHT22;39197;53.200;5.792;2022-08-18T02:49:49;18.20;99.90
53310;DHT22;39197;53.200;5.792;2022-08-18T02:52:15;18.20;99.90
53310;DHT22;39197;53.200;5.792;2022-08-18T02:54:42;18.20;99.90
53310;DHT22;39197;53.200;5.792;2022-08-18T02:57:09;18.20;99.90
53310;DHT22;39197;53.200;5.792;2022-08-18T02:59:36;18.20;99.90
53310;DHT22;39197;53.200;5.792;2022-08-18T03:02:04;18.20;99.90
53310;DHT22;39197;53.200;5.792;2022-08-18T03:04:31;18.20;99.90
53310;DHT22;39197;53.200;5.792;2022-08-18T03:07:00;18.20;99.90
53310;DHT22;39197;53.200;5.792;2022-08-18T03:09:27;18.20;99.90
53310;DHT22;39197;53.200;5.792;2022-08-18T03:11:54;18.20;99.90
53310;DHT22;39197;53.200;5.792;2022-08-18T03:14:20;18.20;99.90
53310;DHT22;39197;53.200;5.792;2022-08-18T03:16:46;18.20;99.90
53310;DHT22;39197;53.200;5.792;2022-08-18T03:19:13;18.20;99.90
53310;DHT22;39197;53.200;5.792;2022-08-18T03:21:42;18.20;99.90
53310;DHT22;39197;53.200;5.792;2022-08-18T03:24:08;18.20;99.90
53310;DHT22;39197;53.200;5.792;2022-08-18T03:26:34;18.20;99.90
53310;DHT22;39197;53.200;5.792;2022-08-18T03:29:00;18.30;99.90
53310;DHT22;39197;53.200;5.792;2022-08-18T03:31:28;18.30;99.90
53310;DHT22;39197;53.200;5.792;2022-08-18T03:33:56;18.30;99.90
53310;DHT22;39197;53.200;5.792;2022-08-18T03:36:24;18.30;99.90
53310;DHT22;39197;53.200;5.792;2022-08-18T03:38:51;18.30;99.90
53310;DHT22;39197;53.200;5.792;2022-08-18T03:41:19;18.30;99.90
53310;DHT22;39197;53.200;5.792;2022-08-18T03:43:45;18.30;99.90
53310;DHT22;39197;53.200;5.792;2022-08-18T03:46:12;18.30;99.90
53310;DHT22;39197;53.200;5.792;2022-08-18T03:48:40;18.30;99.90
53310;DHT22;39197;53.200;5.792;2022-08-18T03:51:17;18.30;99.90
53310;DHT22;39197;53.200;5.792;2022-08-18T03:53:44;18.40;99.90
53310;DHT22;39197;53.200;5.792;2022-08-18T03:56:14;18.40;99.90
53310;DHT22;39197;53.200;5.792;2022-08-18T03:58:47;18.40;99.90
53310;DHT22;39197;53.200;5.792;2022-08-18T04:01:16;18.40;99.90
53310;DHT22;39197;53.200;5.792;2022-08-18T04:03:44;18.40;99.90
53310;DHT22;39197;53.200;5.792;2022-08-18T04:06:28;18.40;99.90
53310;DHT22;39197;53.200;5.792;2022-08-18T04:08:57;18.40;99.90
53310;DHT22;39197;53.200;5.792;2022-08-18T04:11:23;18.30;99.90
53310;DHT22;39197;53.200;5.792;2022-08-18T04:13:49;18.40;99.90
53310;DHT22;39197;53.200;5.792;2022-08-18T04:16:15;18.40;99.90
53310;DHT22;39197;53.200;5.792;2022-08-18T04:18:41;18.30;99.90
53310;DHT22;39197;53.200;5.792;2022-08-18T04:21:10;18.40;99.90
53310;DHT22;39197;53.200;5.792;2022-08-18T04:23:37;18.30;99.90
53310;DHT22;39197;53.200;5.792;2022-08-18T04:26:05;18.30;99.90
53310;DHT22;39197;53.200;5.792;2022-08-18T04:28:31;18.30;99.90
53310;DHT22;39197;53.200;5.792;2022-08-18T04:30:57;18.30;99.90
53310;DHT22;39197;53.200;5.792;2022-08-18T04:33:25;18.30;99.90
53310;DHT22;39197;53.200;5.792;2022-08-18T04:35:51;18.20;99.90
53310;DHT22;39197;53.200;5.792;2022-08-18T04:38:16;18.20;99.90
53310;DHT22;39197;53.200;5.792;2022-08-18T04:40:42;18.20;99.90
53310;DHT22;39197;53.200;5.792;2022-08-18T04:43:08;18.20;99.90
53310;DHT22;39197;53.200;5.792;2022-08-18T04:45:41;18.20;99.90
53310;DHT22;39197;53.200;5.792;2022-08-18T04:48:07;18.20;99.90
53310;DHT22;39197;53.200;5.792;2022-08-18T04:50:35;18.10;99.90
53310;DHT22;39197;53.200;5.792;2022-08-18T04:53:00;18.20;99.90
53310;DHT22;39197;53.200;5.792;2022-08-18T04:55:49;18.20;99.90
53310;DHT22;39197;53.200;5.792;2022-08-18T04:58:17;18.20;99.90
53310;DHT22;39197;53.200;5.792;2022-08-18T05:00:44;18.20;99.90
53310;DHT22;39197;53.200;5.792;2022-08-18T05:03:10;18.20;99.90
53310;DHT22;39197;53.200;5.792;2022-08-18T05:05:36;18.20;99.90
53310;DHT22;39197;53.200;5.792;2022-08-18T05:08:02;18.20;99.90
53310;DHT22;39197;53.200;5.792;2022-08-18T05:10:28;18.20;99.90
53310;DHT22;39197;53.200;5.792;2022-08-18T05:12:53;18.20;99.90
53310;DHT22;39197;53.200;5.792;2022-08-18T05:15:19;18.30;99.90
53310;DHT22;39197;53.200;5.792;2022-08-18T05:17:45;18.30;99.90
53310;DHT22;39197;53.200;5.792;2022-08-18T05:20:11;18.30;99.90
53310;DHT22;39197;53.200;5.792;2022-08-18T05:22:38;18.40;99.90
53310;DHT22;39197;53.200;5.792;2022-08-18T05:25:09;18.40;99.90
53310;DHT22;39197;53.200;5.792;2022-08-18T05:27:37;18.40;99.90
53310;DHT22;39197;53.200;5.792;2022-08-18T05:30:05;18.40;99.90
53310;DHT22;39197;53.200;5.792;2022-08-18T05:32:42;18.40;99.90
53310;DHT22;39197;53.200;5.792;2022-08-18T05:35:17;18.40;99.90
53310;DHT22;39197;53.200;5.792;2022-08-18T05:38:17;18.40;99.90
53310;DHT22;39197;53.200;5.792;2022-08-18T05:43:26;18.50;99.90
53310;DHT22;39197;53.200;5.792;2022-08-18T05:45:51;18.50;99.90
53310;DHT22;39197;53.200;5.792;2022-08-18T05:48:19;18.40;99.90
53310;DHT22;39197;53.200;5.792;2022-08-18T05:50:44;18.40;99.90
53310;DHT22;39197;53.200;5.792;2022-08-18T05:53:13;18.40;99.90
53310;DHT22;39197;53.200;5.792;2022-08-18T05:55:45;18.40;99.90
53310;DHT22;39197;53.200;5.792;2022-08-18T05:58:37;18.50;99.90
53310;DHT22;39197;53.200;5.792;2022-08-18T06:01:26;18.40;99.90
53310;DHT22;39197;53.200;5.792;2022-08-18T06:04:05;18.40;99.90
53310;DHT22;39197;53.200;5.792;2022-08-18T06:06:32;18.40;99.90
53310;DHT22;39197;53.200;5.792;2022-08-18T06:11:41;18.40;99.90
53310;DHT22;39197;53.200;5.792;2022-08-18T06:14:07;18.30;99.90
53310;DHT22;39197;53.200;5.792;2022-08-18T06:16:53;18.40;99.90
53310;DHT22;39197;53.200;5.792;2022-08-18T06:19:44;18.40;99.90
53310;DHT22;39197;53.200;5.792;2022-08-18T06:22:39;18.40;99.90
53310;DHT22;39197;53.200;5.792;2022-08-18T06:25:16;18.30;99.90
53310;DHT22;39197;53.200;5.792;2022-08-18T06:33:49;18.40;99.90
53310;DHT22;39197;53.200;5.792;2022-08-18T06:36:43;18.50;99.90
53310;DHT22;39197;53.200;5.792;2022-08-18T06:39:33;18.60;99.90
53310;DHT22;39197;53.200;5.792;2022-08-18T06:41:59;18.80;99.90
53310;DHT22;39197;53.200;5.792;2022-08-18T06:44:40;18.80;99.90
53310;DHT22;39197;53.200;5.792;2022-08-18T06:52:34;19.20;99.90
53310;DHT22;39197;53.200;5.792;2022-08-18T06:55:10;19.20;99.90
53310;DHT22;39197;53.200;5.792;2022-08-18T06:57:57;19.30;99.90
53310;DHT22;39197;53.200;5.792;2022-08-18T07:00:26;19.30;99.90
53310;DHT22;39197;53.200;5.792;2022-08-18T07:05:27;19.50;99.90
53310;DHT22;39197;53.200;5.792;2022-08-18T07:08:13;19.50;99.90
53310;DHT22;39197;53.200;5.792;2022-08-18T07:10:50;19.60;99.90
53310;DHT22;39197;53.200;5.792;2022-08-18T07:13:20;19.80;99.90
53310;DHT22;39197;53.200;5.792;2022-08-18T07:15:47;19.90;99.90
53310;DHT22;39197;53.200;5.792;2022-08-18T07:18:20;20.00;99.90
53310;DHT22;39197;53.200;5.792;2022-08-18T07:20:53;20.10;99.90
53310;DHT22;39197;53.200;5.792;2022-08-18T07:23:23;20.20;99.90
53310;DHT22;39197;53.200;5.792;2022-08-18T07:25:57;20.20;99.90
53310;DHT22;39197;53.200;5.792;2022-08-18T07:28:34;20.20;99.90
53310;DHT22;39197;53.200;5.792;2022-08-18T07:34:26;20.10;99.90
53310;DHT22;39197;53.200;5.792;2022-08-18T07:37:03;20.10;99.90
53310;DHT22;39197;53.200;5.792;2022-08-18T07:39:39;20.20;99.90
53310;DHT22;39197;53.200;5.792;2022-08-18T07:42:12;20.20;99.90
53310;DHT22;39197;53.200;5.792;2022-08-18T07:44:57;20.40;99.90
53310;DHT22;39197;53.200;5.792;2022-08-18T07:47:34;21.00;99.90
53310;DHT22;39197;53.200;5.792;2022-08-18T07:50:05;21.90;99.90
53310;DHT22;39197;53.200;5.792;2022-08-18T07:52:36;22.30;99.90
53310;DHT22;39197;53.200;5.792;2022-08-18T07:55:30;22.20;99.90
53310;DHT22;39197;53.200;5.792;2022-08-18T07:58:36;22.10;99.90
53310;DHT22;39197;53.200;5.792;2022-08-18T08:03:43;21.60;99.90
53310;DHT22;39197;53.200;5.792;2022-08-18T08:06:27;21.80;99.90
53310;DHT22;39197;53.200;5.792;2022-08-18T08:17:33;22.10;99.90
53310;DHT22;39197;53.200;5.792;2022-08-18T08:22:47;21.80;99.90
53310;DHT22;39197;53.200;5.792;2022-08-18T08:25:25;21.80;99.90
53310;DHT22;39197;53.200;5.792;2022-08-18T08:31:10;21.70;99.90
53310;DHT22;39197;53.200;5.792;2022-08-18T08:33:47;22.00;99.90
53310;DHT22;39197;53.200;5.792;2022-08-18T08:36:24;22.30;99.90
53310;DHT22;39197;53.200;5.792;2022-08-18T08:39:00;22.30;99.90
53310;DHT22;39197;53.200;5.792;2022-08-18T08:41:42;22.50;99.90
53310;DHT22;39197;53.200;5.792;2022-08-18T08:47:02;22.60;99.90
53310;DHT22;39197;53.200;5.792;2022-08-18T08:49:43;22.80;99.90
53310;DHT22;39197;53.200;5.792;2022-08-18T08:52:18;22.70;99.90
53310;DHT22;39197;53.200;5.792;2022-08-18T08:54:52;22.60;99.90
53310;DHT22;39197;53.200;5.792;2022-08-18T08:57:23;22.60;99.90
53310;DHT22;39197;53.200;5.792;2022-08-18T08:59:50;22.40;99.90
53310;DHT22;39197;53.200;5.792;2022-08-18T09:02:25;22.20;99.90
53310;DHT22;39197;53.200;5.792;2022-08-18T09:10:51;21.90;99.90
53310;DHT22;39197;53.200;5.792;2022-08-18T09:13:43;22.00;99.90
53310;DHT22;39197;53.200;5.792;2022-08-18T09:19:29;22.10;99.90
53310;DHT22;39197;53.200;5.792;2022-08-18T09:22:05;22.20;99.90
53310;DHT22;39197;53.200;5.792;2022-08-18T09:24:46;22.40;99.90
53310;DHT22;39197;53.200;5.792;2022-08-18T09:29:53;22.60;99.90
53310;DHT22;39197;53.200;5.792;2022-08-18T09:37:48;22.90;99.90
53310;DHT22;39197;53.200;5.792;2022-08-18T09:40:36;23.00;99.90
53310;DHT22;39197;53.200;5.792;2022-08-18T09:43:39;23.20;99.90
53310;DHT22;39197;53.200;5.792;2022-08-18T09:51:59;24.70;99.90
53310;DHT22;39197;53.200;5.792;2022-08-18T09:54:28;25.00;99.90
53310;DHT22;39197;53.200;5.792;2022-08-18T09:57:05;25.40;99.90
53310;DHT22;39197;53.200;5.792;2022-08-18T10:01:58;25.90;99.90
53310;DHT22;39197;53.200;5.792;2022-08-18T10:06:54;25.60;99.90
53310;DHT22;39197;53.200;5.792;2022-08-18T10:12:24;25.60;99.90
53310;DHT22;39197;53.200;5.792;2022-08-18T10:20:36;25.30;99.90
53310;DHT22;39197;53.200;5.792;2022-08-18T10:23:04;25.00;99.90
53310;DHT22;39197;53.200;5.792;2022-08-18T10:28:00;25.00;99.90
53310;DHT22;39197;53.200;5.792;2022-08-18T10:33:00;24.80;99.90
53310;DHT22;39197;53.200;5.792;2022-08-18T10:38:23;25.70;99.90
53310;DHT22;39197;53.200;5.792;2022-08-18T10:41:08;26.40;99.90
53310;DHT22;39197;53.200;5.792;2022-08-18T10:43:45;26.50;99.90
53310;DHT22;39197;53.200;5.792;2022-08-18T10:46:27;26.70;99.90
53310;DHT22;39197;53.200;5.792;2022-08-18T10:51:51;26.70;99.90
53310;DHT22;39197;53.200;5.792;2022-08-18T10:54:34;26.60;99.90
53310;DHT22;39197;53.200;5.792;2022-08-18T10:57:07;26.90;99.90
53310;DHT22;39197;53.200;5.792;2022-08-18T11:05:04;26.50;99.90
53310;DHT22;39197;53.200;5.792;2022-08-18T11:07:31;26.40;99.90
53310;DHT22;39197;53.200;5.792;2022-08-18T11:09:58;26.00;99.90
53310;DHT22;39197;53.200;5.792;2022-08-18T11:12:44;25.90;99.90
53310;DHT22;39197;53.200;5.792;2022-08-18T11:15:23;25.80;99.90
53310;DHT22;39197;53.200;5.792;2022-08-18T11:20:29;25.60;99.90
53310;DHT22;39197;53.200;5.792;2022-08-18T11:22:58;25.20;99.90
53310;DHT22;39197;53.200;5.792;2022-08-18T11:25:34;25.40;99.90
53310;DHT22;39197;53.200;5.792;2022-08-18T11:28:00;25.20;99.90
53310;DHT22;39197;53.200;5.792;2022-08-18T11:30:34;25.10;99.90
53310;DHT22;39197;53.200;5.792;2022-08-18T11:33:02;25.20;99.90
53310;DHT22;39197;53.200;5.792;2022-08-18T11:35:49;25.10;99.90
53310;DHT22;39197;53.200;5.792;2022-08-18T11:38:17;25.20;99.90
53310;DHT22;39197;53.200;5.792;2022-08-18T11:40:49;25.10;99.90
53310;DHT22;39197;53.200;5.792;2022-08-18T11:58:46;27.60;99.90
53310;DHT22;39197;53.200;5.792;2022-08-18T12:04:20;27.60;99.90
53310;DHT22;39197;53.200;5.792;2022-08-18T12:09:34;27.10;99.90
53310;DHT22;39197;53.200;5.792;2022-08-18T12:12:14;27.00;99.90
53310;DHT22;39197;53.200;5.792;2022-08-18T12:15:03;26.50;99.90
53310;DHT22;39197;53.200;5.792;2022-08-18T12:17:30;26.10;99.90
53310;DHT22;39197;53.200;5.792;2022-08-18T12:19:56;25.80;99.90
53310;DHT22;39197;53.200;5.792;2022-08-18T12:22:27;25.60;99.90
53310;DHT22;39197;53.200;5.792;2022-08-18T12:24:55;25.30;99.90
53310;DHT22;39197;53.200;5.792;2022-08-18T12:27:23;25.10;99.90
53310;DHT22;39197;53.200;5.792;2022-08-18T12:29:50;25.10;99.90
53310;DHT22;39197;53.200;5.792;2022-08-18T12:32:17;25.00;99.90
53310;DHT22;39197;53.200;5.792;2022-08-18T12:34:44;25.10;99.90
53310;DHT22;39197;53.200;5.792;2022-08-18T12:37:14;25.10;99.90
53310;DHT22;39197;53.200;5.792;2022-08-18T12:39:40;25.20;99.90
53310;DHT22;39197;53.200;5.792;2022-08-18T12:42:06;25.20;99.90
53310;DHT22;39197;53.200;5.792;2022-08-18T12:44:32;25.60;99.90
53310;DHT22;39197;53.200;5.792;2022-08-18T12:47:00;26.20;99.90
53310;DHT22;39197;53.200;5.792;2022-08-18T12:49:26;27.10;99.90
53310;DHT22;39197;53.200;5.792;2022-08-18T12:51:52;27.80;99.90
53310;DHT22;39197;53.200;5.792;2022-08-18T12:54:19;28.40;99.90
53310;DHT22;39197;53.200;5.792;2022-08-18T12:56:52;29.00;99.90
53310;DHT22;39197;53.200;5.792;2022-08-18T12:59:18;28.90;99.90
53310;DHT22;39197;53.200;5.792;2022-08-18T13:01:45;29.10;99.90
53310;DHT22;39197;53.200;5.792;2022-08-18T13:04:10;29.20;99.90
53310;DHT22;39197;53.200;5.792;2022-08-18T13:06:38;29.60;99.90
53310;DHT22;39197;53.200;5.792;2022-08-18T13:09:06;29.90;99.90
53310;DHT22;39197;53.200;5.792;2022-08-18T13:11:31;29.60;99.90
53310;DHT22;39197;53.200;5.792;2022-08-18T13:13:57;29.20;99.90
53310;DHT22;39197;53.200;5.792;2022-08-18T13:16:24;28.90;99.90
53310;DHT22;39197;53.200;5.792;2022-08-18T13:18:51;28.90;99.90
53310;DHT22;39197;53.200;5.792;2022-08-18T13:21:16;29.30;99.90
53310;DHT22;39197;53.200;5.792;2022-08-18T13:23:43;29.50;99.90
53310;DHT22;39197;53.200;5.792;2022-08-18T13:26:14;29.50;99.90
53310;DHT22;39197;53.200;5.792;2022-08-18T13:28:41;29.10;99.90
53310;DHT22;39197;53.200;5.792;2022-08-18T13:31:06;29.00;99.90
53310;DHT22;39197;53.200;5.792;2022-08-18T13:33:33;29.20;99.90
53310;DHT22;39197;53.200;5.792;2022-08-18T13:35:59;28.40;99.90
53310;DHT22;39197;53.200;5.792;2022-08-18T13:38:24;28.10;99.90
53310;DHT22;39197;53.200;5.792;2022-08-18T13:40:52;27.70;99.90
53310;DHT22;39197;53.200;5.792;2022-08-18T13:43:21;27.20;99.90
53310;DHT22;39197;53.200;5.792;2022-08-18T13:45:50;26.50;99.90
53310;DHT22;39197;53.200;5.792;2022-08-18T13:48:16;26.50;99.90
53310;DHT22;39197;53.200;5.792;2022-08-18T13:50:42;26.30;99.90
53310;DHT22;39197;53.200;5.792;2022-08-18T13:53:16;26.40;99.90
53310;DHT22;39197;53.200;5.792;2022-08-18T13:55:47;26.80;99.90
53310;DHT22;39197;53.200;5.792;2022-08-18T13:58:13;27.30;99.90
53310;DHT22;39197;53.200;5.792;2022-08-18T14:00:39;27.60;99.90
53310;DHT22;39197;53.200;5.792;2022-08-18T14:03:06;27.60;99.90
53310;DHT22;39197;53.200;5.792;2022-08-18T14:05:32;27.60;99.90
53310;DHT22;39197;53.200;5.792;2022-08-18T14:07:59;28.00;99.90
53310;DHT22;39197;53.200;5.792;2022-08-18T14:10:25;28.30;99.90
53310;DHT22;39197;53.200;5.792;2022-08-18T14:12:56;28.20;99.90
53310;DHT22;39197;53.200;5.792;2022-08-18T14:15:22;28.40;99.90
53310;DHT22;39197;53.200;5.792;2022-08-18T14:17:48;28.20;99.90
53310;DHT22;39197;53.200;5.792;2022-08-18T14:20:14;28.40;99.90
53310;DHT22;39197;53.200;5.792;2022-08-18T14:23:00;28.00;99.90
53310;DHT22;39197;53.200;5.792;2022-08-18T14:25:44;28.40;99.90
53310;DHT22;39197;53.200;5.792;2022-08-18T14:28:30;28.00;99.90
53310;DHT22;39197;53.200;5.792;2022-08-18T14:30:57;28.10;99.90
53310;DHT22;39197;53.200;5.792;2022-08-18T14:33:25;28.60;99.90
53310;DHT22;39197;53.200;5.792;2022-08-18T14:35:52;28.70;99.90
53310;DHT22;39197;53.200;5.792;2022-08-18T14:38:17;28.70;99.90
53310;DHT22;39197;53.200;5.792;2022-08-18T14:40:44;28.30;99.90
53310;DHT22;39197;53.200;5.792;2022-08-18T14:43:12;28.40;99.90
53310;DHT22;39197;53.200;5.792;2022-08-18T14:45:39;28.60;99.90
53310;DHT22;39197;53.200;5.792;2022-08-18T14:48:13;28.80;99.90
53310;DHT22;39197;53.200;5.792;2022-08-18T14:50:41;29.20;99.90
53310;DHT22;39197;53.200;5.792;2022-08-18T14:53:08;29.50;99.90
53310;DHT22;39197;53.200;5.792;2022-08-18T14:55:34;29.40;99.90
53310;DHT22;39197;53.200;5.792;2022-08-18T14:58:03;29.00;99.90
53310;DHT22;39197;53.200;5.792;2022-08-18T15:00:29;29.10;99.90
53310;DHT22;39197;53.200;5.792;2022-08-18T15:02:55;29.00;99.90
53310;DHT22;39197;53.200;5.792;2022-08-18T15:05:22;28.80;99.90
53310;DHT22;39197;53.200;5.792;2022-08-18T15:07:48;28.50;99.90
53310;DHT22;39197;53.200;5.792;2022-08-18T15:10:15;28.60;99.90
53310;DHT22;39197;53.200;5.792;2022-08-18T15:12:42;28.40;99.90
53310;DHT22;39197;53.200;5.792;2022-08-18T15:15:10;27.90;99.90
53310;DHT22;39197;53.200;5.792;2022-08-18T15:17:38;28.10;99.90
53310;DHT22;39197;53.200;5.792;2022-08-18T15:20:05;28.20;99.90
53310;DHT22;39197;53.200;5.792;2022-08-18T15:22:31;28.20;99.90
53310;DHT22;39197;53.200;5.792;2022-08-18T15:25:20;28.60;99.90
53310;DHT22;39197;53.200;5.792;2022-08-18T15:28:04;28.70;99.90
53310;DHT22;39197;53.200;5.792;2022-08-18T15:30:30;28.40;99.90
53310;DHT22;39197;53.200;5.792;2022-08-18T15:32:56;28.40;99.90
53310;DHT22;39197;53.200;5.792;2022-08-18T15:35:23;28.60;99.90
53310;DHT22;39197;53.200;5.792;2022-08-18T15:37:49;28.80;99.90
53310;DHT22;39197;53.200;5.792;2022-08-18T15:40:21;28.70;99.90
53310;DHT22;39197;53.200;5.792;2022-08-18T15:42:50;29.00;99.90
53310;DHT22;39197;53.200;5.792;2022-08-18T15:45:21;29.10;99.90
53310;DHT22;39197;53.200;5.792;2022-08-18T15:47:50;29.10;99.90
53310;DHT22;39197;53.200;5.792;2022-08-18T15:50:16;28.60;99.90
53310;DHT22;39197;53.200;5.792;2022-08-18T15:53:02;28.30;99.90
53310;DHT22;39197;53.200;5.792;2022-08-18T15:55:30;28.80;99.90
53310;DHT22;39197;53.200;5.792;2022-08-18T15:57:56;28.70;99.90
53310;DHT22;39197;53.200;5.792;2022-08-18T16:00:24;28.70;99.90
53310;DHT22;39197;53.200;5.792;2022-08-18T16:02:52;28.50;99.90
53310;DHT22;39197;53.200;5.792;2022-08-18T16:05:24;28.00;99.90
53310;DHT22;39197;53.200;5.792;2022-08-18T16:07:52;28.20;99.90
53310;DHT22;39197;53.200;5.792;2022-08-18T16:10:20;27.80;99.90
53310;DHT22;39197;53.200;5.792;2022-08-18T16:12:46;28.00;99.90
53310;DHT22;39197;53.200;5.792;2022-08-18T16:15:16;28.10;99.90
53310;DHT22;39197;53.200;5.792;2022-08-18T16:17:42;28.20;99.90
53310;DHT22;39197;53.200;5.792;2022-08-18T16:20:09;28.00;99.90
53310;DHT22;39197;53.200;5.792;2022-08-18T16:22:35;28.10;99.90
53310;DHT22;39197;53.200;5.792;2022-08-18T16:25:04;27.80;99.90
53310;DHT22;39197;53.200;5.792;2022-08-18T16:27:31;27.30;99.90
53310;DHT22;39197;53.200;5.792;2022-08-18T16:29:59;27.10;99.90
53310;DHT22;39197;53.200;5.792;2022-08-18T16:32:25;26.80;99.90
53310;DHT22;39197;53.200;5.792;2022-08-18T16:34:51;26.80;99.90
53310;DHT22;39197;53.200;5.792;2022-08-18T16:37:17;27.00;99.90
53310;DHT22;39197;53.200;5.792;2022-08-18T16:39:43;26.80;99.90
53310;DHT22;39197;53.200;5.792;2022-08-18T16:42:09;27.00;99.90
53310;DHT22;39197;53.200;5.792;2022-08-18T16:44:36;26.50;99.90
53310;DHT22;39197;53.200;5.792;2022-08-18T16:47:05;26.40;99.90
53310;DHT22;39197;53.200;5.792;2022-08-18T16:49:31;26.30;99.90
53310;DHT22;39197;53.200;5.792;2022-08-18T16:52:00;26.40;99.90
53310;DHT22;39197;53.200;5.792;2022-08-18T16:54:27;26.20;99.90
53310;DHT22;39197;53.200;5.792;2022-08-18T16:56:53;25.70;99.90
53310;DHT22;39197;53.200;5.792;2022-08-18T16:59:18;25.70;99.90
53310;DHT22;39197;53.200;5.792;2022-08-18T17:02:02;25.50;99.90
53310;DHT22;39197;53.200;5.792;2022-08-18T17:04:47;25.10;99.90
53310;DHT22;39197;53.200;5.792;2022-08-18T17:07:12;25.10;99.90
53310;DHT22;39197;53.200;5.792;2022-08-18T17:09:38;25.00;99.90
53310;DHT22;39197;53.200;5.792;2022-08-18T17:12:04;24.80;99.90
53310;DHT22;39197;53.200;5.792;2022-08-18T17:14:31;24.80;99.90
53310;DHT22;39197;53.200;5.792;2022-08-18T17:16:57;24.80;99.90
53310;DHT22;39197;53.200;5.792;2022-08-18T17:19:28;24.50;99.90
53310;DHT22;39197;53.200;5.792;2022-08-18T17:21:55;24.60;99.90
53310;DHT22;39197;53.200;5.792;2022-08-18T17:24:22;24.40;99.90
53310;DHT22;39197;53.200;5.792;2022-08-18T17:29:46;24.00;99.90
53310;DHT22;39197;53.200;5.792;2022-08-18T17:32:37;23.90;99.90
53310;DHT22;39197;53.200;5.792;2022-08-18T17:35:07;23.60;99.90
53310;DHT22;39197;53.200;5.792;2022-08-18T17:37:43;23.40;99.90
53310;DHT22;39197;53.200;5.792;2022-08-18T17:40:54;23.30;99.90
53310;DHT22;39197;53.200;5.792;2022-08-18T17:43:21;23.20;99.90
53310;DHT22;39197;53.200;5.792;2022-08-18T17:46:05;23.20;99.90
53310;DHT22;39197;53.200;5.792;2022-08-18T17:51:45;22.90;99.90
53310;DHT22;39197;53.200;5.792;2022-08-18T17:57:00;22.40;99.90
53310;DHT22;39197;53.200;5.792;2022-08-18T17:59:40;22.20;99.90